createdAt,value
2022-08-16T00:01:09.740Z,99778.25
2022-08-16T00:03:59.299Z,99772.03
2022-08-16T00:06:47.637Z,99779.33
2022-08-16T00:09:38.198Z,99783.91
2022-08-16T00:12:31.923Z,99778.80
2022-08-16T00:15:24.241Z,99781.77
2022-08-16T00:18:14.492Z,99788.25
2022-08-16T00:21:03.884Z,99787.72
2022-08-16T00:23:52.143Z,99788.80
2022-08-16T00:26:44.951Z,99781.27
2022-08-16T00:29:34.122Z,99795.05
2022-08-16T00:32:22.654Z,99785.60
2022-08-16T00:35:15.893Z,99794.78
2022-08-16T00:38:40.572Z,99789.14
2022-08-16T00:41:14.841Z,99796.71
2022-08-16T00:44:10.590Z,99797.27
2022-08-16T00:47:06.228Z,99790.52
2022-08-16T00:49:56.648Z,99796.20
2022-08-16T00:52:50.589Z,99793.23
2022-08-16T00:55:43.032Z,99791.62
2022-08-16T00:58:34.977Z,99788.39
2022-08-16T01:01:24.446Z,99790.55
2022-08-16T01:04:28.967Z,99794.63
2022-08-16T01:07:18.643Z,99792.19
2022-08-16T01:10:16.777Z,99784.64
2022-08-16T01:13:12.485Z,99791.66
2022-08-16T01:16:10.274Z,99790.33
2022-08-16T01:19:02.972Z,99787.64
2022-08-16T01:21:57.606Z,99793.29
2022-08-16T01:25:09.907Z,99785.48
2022-08-16T01:28:00.523Z,99795.98
2022-08-16T01:30:54.148Z,99791.67
2022-08-16T01:33:44.692Z,99786.28
2022-08-16T01:36:34.366Z,99787.36
2022-08-16T01:39:22.989Z,99788.44
2022-08-16T01:42:13.218Z,99787.66
2022-08-16T01:45:01.691Z,99784.13
2022-08-16T01:47:52.287Z,99780.91
2022-08-16T01:51:09.217Z,99783.60
2022-08-16T01:53:55.314Z,99782.27
2022-08-16T01:56:49.463Z,99792.53
2022-08-16T01:59:40.709Z,99790.91
2022-08-16T02:02:33.854Z,99788.77
2022-08-16T02:05:31.063Z,99790.08
2022-08-16T02:08:33.429Z,99787.37
2022-08-16T02:11:24.778Z,99782.27
2022-08-16T02:14:33.255Z,99785.23
2022-08-16T02:17:21.715Z,99784.97
2022-08-16T02:20:12.434Z,99779.58
2022-08-16T02:23:05.922Z,99776.06
2022-08-16T02:25:54.956Z,99776.06
2022-08-16T02:28:45.270Z,99781.74
2022-08-16T02:32:02.560Z,99790.09
2022-08-16T02:34:45.492Z,99801.95
2022-08-16T02:37:51.308Z,99797.11
2022-08-16T02:40:42.480Z,99793.08
2022-08-16T02:43:33.424Z,99782.56
2022-08-16T02:46:30.112Z,99787.41
2022-08-16T02:49:23.288Z,99787.41
2022-08-16T02:52:31.908Z,99798.20
2022-08-16T02:55:41.158Z,99789.86
2022-08-16T02:58:33.346Z,99796.59
2022-08-16T03:01:33.807Z,99794.72
2022-08-16T03:04:51.165Z,99802.53
2022-08-16T03:07:43.926Z,99801.20
2022-08-16T03:10:39.711Z,99804.15
2022-08-16T03:13:28.277Z,99811.98
2022-08-16T03:16:38.526Z,99812.24
2022-08-16T03:19:48.690Z,99807.14
2022-08-16T03:22:38.137Z,99814.40
2022-08-16T03:25:41.114Z,99811.45
2022-08-16T03:28:32.844Z,99811.99
2022-08-16T03:31:21.251Z,99814.94
2022-08-16T03:34:10.003Z,99819.80
2022-08-16T03:37:01.915Z,99820.62
2022-08-16T03:39:56.453Z,99810.09
2022-08-16T03:43:18.444Z,99814.41
2022-08-16T03:46:00.681Z,99822.77
2022-08-16T03:48:55.122Z,99826.55
2022-08-16T03:51:43.929Z,99823.03
2022-08-16T03:54:38.545Z,99823.31
2022-08-16T03:57:42.191Z,99816.02
2022-08-16T04:00:41.716Z,99813.33
2022-08-16T04:03:33.195Z,99818.72
2022-08-16T04:06:23.251Z,99809.55
2022-08-16T04:09:12.630Z,99812.53
2022-08-16T04:12:01.272Z,99821.16
2022-08-16T04:14:50.834Z,99812.79
2022-08-16T04:17:41.442Z,99808.77
2022-08-16T04:20:33.966Z,99802.01
2022-08-16T04:23:25.955Z,99810.63
2022-08-16T04:26:17.223Z,99806.86
2022-08-16T04:29:15.019Z,99813.61
2022-08-16T04:32:07.860Z,99813.32
2022-08-16T04:35:01.197Z,99816.55
2022-08-16T04:37:54.201Z,99821.69
2022-08-16T04:40:48.557Z,99827.33
2022-08-16T04:43:38.800Z,99833.80
2022-08-16T04:47:02.749Z,99834.62
2022-08-16T04:49:46.029Z,99833.00
2022-08-16T04:52:46.666Z,99832.70
2022-08-16T04:55:37.725Z,99828.13
2022-08-16T04:58:43.901Z,99820.81
2022-08-16T05:01:58.992Z,99823.28
2022-08-16T05:04:44.516Z,99817.32
2022-08-16T05:07:32.777Z,99807.84
2022-08-16T05:10:24.939Z,99808.09
2022-08-16T05:13:15.520Z,99798.34
2022-08-16T05:16:04.977Z,99795.08
2022-08-16T05:18:58.332Z,99803.38
2022-08-16T05:21:47.226Z,99809.02
2022-08-16T05:24:35.234Z,99819.77
2022-08-16T05:27:24.445Z,99804.59
2022-08-16T05:30:34.688Z,99805.65
2022-08-16T05:33:27.312Z,99803.67
2022-08-16T05:36:17.202Z,99801.98
2022-08-16T05:39:11.810Z,99806.52
2022-08-16T05:42:00.379Z,99808.36
2022-08-16T05:44:48.470Z,99806.36
2022-08-16T05:47:43.423Z,99813.06
2022-08-16T05:50:34.251Z,99803.25
2022-08-16T05:53:24.314Z,99799.62
2022-08-16T05:56:34.084Z,99810.89
2022-08-16T05:59:27.576Z,99819.42
2022-08-16T06:02:17.323Z,99828.25
2022-08-16T06:05:07.317Z,99824.34
2022-08-16T06:07:59.781Z,99825.02
2022-08-16T06:11:02.581Z,99820.52
2022-08-16T06:13:58.977Z,99809.31
2022-08-16T06:17:05.535Z,99807.77
2022-08-16T06:19:54.328Z,99811.36
2022-08-16T06:22:44.835Z,99800.89
2022-08-16T06:25:35.994Z,99809.38
2022-08-16T06:28:34.990Z,99812.23
2022-08-16T06:31:27.582Z,99807.16
2022-08-16T06:34:55.135Z,99815.67
2022-08-16T06:37:25.863Z,99807.87
2022-08-16T06:40:26.874Z,99815.23
2022-08-16T06:43:22.108Z,99818.27
2022-08-16T06:46:31.922Z,99814.77
2022-08-16T06:49:24.284Z,99812.86
2022-08-16T06:52:57.278Z,99815.12
2022-08-16T06:55:21.867Z,99810.17
2022-08-16T06:58:22.024Z,99815.89
2022-08-16T07:01:24.334Z,99817.78
2022-08-16T07:04:32.427Z,99820.48
2022-08-16T07:07:36.244Z,99821.56
2022-08-16T07:10:27.013Z,99811.28
2022-08-16T07:13:26.672Z,99816.97
2022-08-16T07:16:27.885Z,99815.61
2022-08-16T07:19:17.095Z,99817.27
2022-08-16T07:22:52.843Z,99829.49
2022-08-16T07:25:17.139Z,99824.65
2022-08-16T07:28:07.105Z,99817.50
2022-08-16T07:31:02.592Z,99827.48
2022-08-16T07:33:55.057Z,99819.24
2022-08-16T07:36:58.131Z,99814.30
2022-08-16T07:39:50.617Z,99820.92
2022-08-16T07:42:40.048Z,99814.91
2022-08-16T07:45:29.822Z,99809.32
2022-08-16T07:48:22.523Z,99813.52
2022-08-16T07:51:14.333Z,99813.39
2022-08-16T07:54:09.742Z,99808.27
2022-08-16T07:57:02.391Z,99810.20
2022-08-16T07:59:52.035Z,99812.44
2022-08-16T08:02:40.732Z,99810.80
2022-08-16T08:05:36.961Z,99799.05
2022-08-16T08:08:51.701Z,99812.64
2022-08-16T08:11:34.819Z,99801.34
2022-08-16T08:14:29.637Z,99802.37
2022-08-16T08:17:19.095Z,99806.64
2022-08-16T08:20:11.794Z,99804.46
2022-08-16T08:23:02.386Z,99798.06
2022-08-16T08:26:00.349Z,99801.00
2022-08-16T08:28:51.038Z,99802.34
2022-08-16T08:31:41.725Z,99809.92
2022-08-16T08:34:31.854Z,99801.44
2022-08-16T08:37:22.014Z,99801.16
2022-08-16T08:40:15.693Z,99800.53
2022-08-16T08:43:18.768Z,99795.18
2022-08-16T08:46:18.154Z,99795.32
2022-08-16T08:49:10.037Z,99800.91
2022-08-16T08:52:01.954Z,99792.48
2022-08-16T08:54:56.164Z,99789.03
2022-08-16T08:57:46.822Z,99789.81
2022-08-16T09:01:11.321Z,99787.13
2022-08-16T09:04:01.665Z,99789.87
2022-08-16T09:06:49.972Z,99785.93
2022-08-16T09:09:41.285Z,99784.39
2022-08-16T09:12:36.223Z,99785.56
2022-08-16T09:15:32.630Z,99780.48
2022-08-16T09:18:25.083Z,99778.55
2022-08-16T09:21:15.261Z,99774.48
2022-08-16T09:24:10.026Z,99781.82
2022-08-16T09:27:00.557Z,99790.44
2022-08-16T09:30:00.469Z,99785.20
2022-08-16T09:32:54.121Z,99783.50
2022-08-16T09:35:43.045Z,99781.30
2022-08-16T09:38:32.821Z,99791.73
2022-08-16T09:41:21.179Z,99788.86
2022-08-16T09:45:13.092Z,99784.47
2022-08-16T09:47:17.543Z,99793.89
2022-08-16T09:50:13.675Z,99792.23
2022-08-16T09:53:15.346Z,99786.23
2022-08-16T09:56:14.825Z,99788.03
2022-08-16T09:59:08.721Z,99790.97
2022-08-16T10:01:56.984Z,99788.00
2022-08-16T10:04:54.573Z,99776.38
2022-08-16T10:07:45.417Z,99776.22
2022-08-16T10:10:34.260Z,99769.70
2022-08-16T10:13:22.425Z,99771.09
2022-08-16T10:19:07.608Z,99768.66
2022-08-16T10:21:56.801Z,99766.11
2022-08-16T10:24:56.181Z,99768.95
2022-08-16T10:27:53.271Z,99761.95
2022-08-16T10:30:45.340Z,99760.03
2022-08-16T10:33:34.754Z,99756.23
2022-08-16T10:36:38.703Z,99751.23
2022-08-16T10:39:40.753Z,99749.81
2022-08-16T10:42:29.918Z,99740.09
2022-08-16T10:45:18.730Z,99742.11
2022-08-16T10:48:27.748Z,99738.66
2022-08-16T10:51:17.123Z,99747.77
2022-08-16T10:54:06.594Z,99743.44
2022-08-16T10:57:15.034Z,99735.63
2022-08-16T11:00:21.311Z,99733.34
2022-08-16T11:06:21.535Z,99726.42
2022-08-16T11:09:25.486Z,99733.63
2022-08-16T11:12:14.731Z,99718.70
2022-08-16T11:15:18.606Z,99718.77
2022-08-16T11:18:48.584Z,99719.98
2022-08-16T11:21:29.110Z,99712.19
2022-08-16T11:24:41.558Z,99719.72
2022-08-16T11:27:35.400Z,99718.59
2022-08-16T11:30:36.860Z,99709.16
2022-08-16T11:36:36.667Z,99698.58
2022-08-16T11:39:25.670Z,99696.25
2022-08-16T11:42:28.224Z,99703.02
2022-08-16T11:45:19.801Z,99701.84
2022-08-16T11:48:08.342Z,99696.75
2022-08-16T11:50:57.405Z,99690.84
2022-08-16T11:53:45.495Z,99697.14
2022-08-16T11:56:52.050Z,99680.55
2022-08-16T11:59:42.502Z,99683.75
2022-08-16T12:02:33.054Z,99675.84
2022-08-16T12:05:23.626Z,99679.41
2022-08-16T12:08:14.456Z,99674.28
2022-08-16T12:11:06.907Z,99675.88
2022-08-16T12:13:55.384Z,99661.61
2022-08-16T12:16:45.754Z,99661.62
2022-08-16T12:19:43.550Z,99663.20
2022-08-16T12:22:33.902Z,99655.33
2022-08-16T12:25:28.282Z,99667.59
2022-08-16T12:28:16.712Z,99667.63
2022-08-16T12:31:14.200Z,99653.00
2022-08-16T12:34:08.795Z,99647.09
2022-08-16T12:36:58.160Z,99656.17
2022-08-16T12:39:47.156Z,99653.39
2022-08-16T12:42:40.955Z,99651.04
2022-08-16T12:45:47.204Z,99673.97
2022-08-16T12:48:54.427Z,99666.06
2022-08-16T12:51:59.788Z,99658.55
2022-08-16T12:54:54.956Z,99659.36
2022-08-16T12:57:43.874Z,99664.88
2022-08-16T13:00:47.942Z,99657.37
2022-08-16T13:03:40.782Z,99662.52
2022-08-16T13:06:33.421Z,99673.20
2022-08-16T13:09:26.365Z,99665.30
2022-08-16T13:12:19.234Z,99661.34
2022-08-16T13:15:10.579Z,99674.38
2022-08-16T13:18:00.246Z,99677.54
2022-08-16T13:20:48.537Z,99670.41
2022-08-16T13:23:43.425Z,99683.44
2022-08-16T13:26:32.317Z,99678.61
2022-08-16T13:29:21.053Z,99671.86
2022-08-16T13:32:10.625Z,99673.39
2022-08-16T13:35:19.451Z,99674.08
2022-08-16T13:38:08.936Z,99677.58
2022-08-16T13:40:57.823Z,99676.00
2022-08-16T13:43:57.570Z,99678.76
2022-08-16T13:46:47.628Z,99672.42
2022-08-16T13:49:35.950Z,99672.38
2022-08-16T13:52:25.006Z,99670.35
2022-08-16T13:55:17.573Z,99675.05
2022-08-16T13:58:36.778Z,99671.77
2022-08-16T14:01:14.817Z,99665.42
2022-08-16T14:04:05.331Z,99659.80
2022-08-16T14:06:53.550Z,99664.86
2022-08-16T14:09:44.805Z,99668.73
2022-08-16T14:12:34.088Z,99667.91
2022-08-16T14:15:23.065Z,99665.89
2022-08-16T14:18:15.799Z,99654.44
2022-08-16T14:21:08.648Z,99671.76
2022-08-16T14:24:01.933Z,99667.70
2022-08-16T14:26:55.893Z,99673.47
2022-08-16T14:29:49.496Z,99664.20
2022-08-16T14:32:38.258Z,99672.81
2022-08-16T14:35:48.139Z,99679.84
2022-08-16T14:38:39.520Z,99692.53
2022-08-16T14:41:29.439Z,99687.25
2022-08-16T14:44:18.060Z,99683.20
2022-08-16T14:47:08.496Z,99692.64
2022-08-16T14:49:57.000Z,99689.08
2022-08-16T14:52:56.611Z,99700.52
2022-08-16T14:55:45.604Z,99703.88
2022-08-16T14:58:36.910Z,99694.77
2022-08-16T15:01:26.670Z,99709.22
2022-08-16T15:04:40.336Z,99698.41
2022-08-16T15:07:36.134Z,99700.28
2022-08-16T15:10:26.749Z,99701.73
2022-08-16T15:13:17.940Z,99701.19
2022-08-16T15:16:08.127Z,99697.58
2022-08-16T15:18:58.600Z,99697.16
2022-08-16T15:21:51.889Z,99701.07
2022-08-16T15:24:42.733Z,99704.98
2022-08-16T15:27:36.046Z,99691.16
2022-08-16T15:30:57.272Z,99694.28
2022-08-16T15:33:43.403Z,99695.98
2022-08-16T15:36:33.123Z,99691.91
2022-08-16T15:39:35.413Z,99688.61
2022-08-16T15:42:28.771Z,99683.06
2022-08-16T15:45:37.718Z,99676.75
2022-08-16T15:48:29.158Z,99685.38
2022-08-16T15:51:18.024Z,99690.45
2022-08-16T15:54:21.540Z,99696.26
2022-08-16T15:57:16.153Z,99701.41
2022-08-16T16:00:14.602Z,99694.98
2022-08-16T16:03:08.683Z,99696.44
2022-08-16T16:06:00.334Z,99698.23
2022-08-16T16:08:49.720Z,99701.63
2022-08-16T16:11:40.435Z,99709.34
2022-08-16T16:14:29.460Z,99722.06
2022-08-16T16:17:18.988Z,99727.05
2022-08-16T16:20:13.789Z,99722.19
2022-08-16T16:23:10.717Z,99712.72
2022-08-16T16:26:00.353Z,99712.28
2022-08-16T16:29:07.571Z,99713.00
2022-08-16T16:32:05.207Z,99717.63
2022-08-16T16:34:57.256Z,99725.42
2022-08-16T16:37:45.947Z,99720.17
2022-08-16T16:40:46.316Z,99725.57
2022-08-16T16:43:44.457Z,99730.53
2022-08-16T16:46:41.108Z,99730.80
2022-08-16T16:49:32.786Z,99735.78
2022-08-16T16:52:44.148Z,99738.80
2022-08-16T16:55:30.017Z,99736.66
2022-08-16T16:58:36.816Z,99741.63
2022-08-16T17:01:50.146Z,99748.09
2022-08-16T17:04:40.049Z,99751.00
2022-08-16T17:07:28.229Z,99760.98
2022-08-16T17:10:45.907Z,99770.17
2022-08-16T17:13:25.936Z,99767.94
2022-08-16T17:16:18.427Z,99770.03
2022-08-16T17:19:16.140Z,99772.92
2022-08-16T17:22:14.248Z,99776.52
2022-08-16T17:25:07.483Z,99775.84
2022-08-16T17:27:56.768Z,99785.33
2022-08-16T17:30:46.647Z,99784.22
2022-08-16T17:33:36.947Z,99792.91
2022-08-16T17:36:35.833Z,99796.13
2022-08-16T17:39:24.849Z,99793.39
2022-08-16T17:42:17.331Z,99789.48
2022-08-16T17:45:06.727Z,99791.91
2022-08-16T17:47:55.230Z,99795.09
2022-08-16T17:50:43.846Z,99796.32
2022-08-16T17:53:35.504Z,99798.72
2022-08-16T17:56:24.024Z,99790.09
2022-08-16T17:59:14.121Z,99796.81
2022-08-16T18:02:42.669Z,99797.25
2022-08-16T18:05:12.394Z,99805.06
2022-08-16T18:08:00.677Z,99804.66
2022-08-16T18:10:50.433Z,99812.50
2022-08-16T18:13:42.335Z,99819.94
2022-08-16T18:16:31.120Z,99816.01
2022-08-16T18:19:19.603Z,99816.72
2022-08-16T18:22:20.365Z,99820.66
2022-08-16T18:25:10.274Z,99827.64
2022-08-16T18:27:58.546Z,99829.62
2022-08-16T18:30:51.044Z,99829.97
2022-08-16T18:33:43.566Z,99828.74
2022-08-16T18:36:34.043Z,99828.30
2022-08-16T18:39:22.760Z,99820.47
2022-08-16T18:42:13.814Z,99816.97
2022-08-16T18:45:03.786Z,99819.27
2022-08-16T18:47:51.950Z,99818.50
2022-08-16T18:50:58.869Z,99822.33
2022-08-16T18:53:49.787Z,99817.55
2022-08-16T18:56:55.139Z,99821.88
2022-08-16T18:59:45.892Z,99828.80
2022-08-16T19:02:57.507Z,99821.76
2022-08-16T19:05:47.592Z,99823.69
2022-08-16T19:08:36.061Z,99827.19
2022-08-16T19:11:27.738Z,99825.56
2022-08-16T19:14:14.741Z,99834.53
2022-08-16T19:17:03.472Z,99833.72
2022-08-16T19:19:52.135Z,99833.38
2022-08-16T19:25:53.176Z,99834.62
2022-08-16T19:28:51.365Z,99832.67
2022-08-16T19:31:47.218Z,99835.36
2022-08-16T19:34:35.295Z,99837.41
2022-08-16T19:37:24.172Z,99840.59
2022-08-16T19:40:37.292Z,99844.88
2022-08-16T19:43:22.570Z,99843.73
2022-08-16T19:46:11.408Z,99844.17
2022-08-16T19:49:00.168Z,99848.14
2022-08-16T19:51:49.171Z,99847.78
2022-08-16T19:54:41.060Z,99846.31
2022-08-16T19:57:30.349Z,99853.00
2022-08-16T20:00:18.719Z,99850.20
2022-08-16T20:03:12.488Z,99842.47
2022-08-16T20:06:01.126Z,99848.36
2022-08-16T20:08:49.492Z,99850.39
2022-08-16T20:11:37.994Z,99850.02
2022-08-16T20:14:26.804Z,99853.18
2022-08-16T20:17:15.388Z,99862.86
2022-08-16T20:20:04.375Z,99860.58
2022-08-16T20:22:55.178Z,99850.11
2022-08-16T20:25:49.700Z,99852.45
2022-08-16T20:28:52.990Z,99859.92
2022-08-16T20:31:43.119Z,99863.83
2022-08-16T20:34:31.686Z,99863.44
2022-08-16T20:37:21.631Z,99860.34
2022-08-16T20:40:27.826Z,99858.84
2022-08-16T20:43:20.414Z,99860.84
2022-08-16T20:46:08.960Z,99858.23
2022-08-16T20:48:57.723Z,99859.44
2022-08-16T20:51:49.395Z,99864.18
2022-08-16T20:54:40.982Z,99871.42
2022-08-16T20:57:29.370Z,99883.58
2022-08-16T21:00:18.565Z,99886.03
2022-08-16T21:03:08.963Z,99893.31
2022-08-16T21:05:58.066Z,99889.89
2022-08-16T21:08:53.567Z,99893.70
2022-08-16T21:11:42.139Z,99895.09
2022-08-16T21:14:33.467Z,99897.61
2022-08-16T21:17:21.825Z,99897.09
2022-08-16T21:20:12.341Z,99899.30
2022-08-16T21:23:02.969Z,99896.08
2022-08-16T21:25:58.771Z,99901.00
2022-08-16T21:28:48.173Z,99900.48
2022-08-16T21:31:36.360Z,99901.08
2022-08-16T21:34:25.303Z,99897.04
2022-08-16T21:37:15.545Z,99893.81
2022-08-16T21:40:05.627Z,99894.41
2022-08-16T21:42:54.350Z,99894.20
2022-08-16T21:45:44.473Z,99893.97
2022-08-16T21:48:33.540Z,99894.87
2022-08-16T21:51:23.008Z,99900.06
2022-08-16T21:54:11.694Z,99906.35
2022-08-16T21:57:00.070Z,99900.19
2022-08-16T21:59:48.674Z,99893.73
2022-08-16T22:02:38.943Z,99894.33
2022-08-16T22:05:27.665Z,99892.20
2022-08-16T22:08:16.281Z,99898.00
2022-08-16T22:11:09.189Z,99892.14
2022-08-16T22:13:59.469Z,99901.95
2022-08-16T22:16:47.885Z,99901.70
2022-08-16T22:19:36.257Z,99903.90
2022-08-16T22:22:25.172Z,99911.52
2022-08-16T22:25:23.427Z,99894.23
2022-08-16T22:28:13.298Z,99893.20
2022-08-16T22:31:02.283Z,99892.98
2022-08-16T22:33:50.747Z,99897.89
2022-08-16T22:36:39.600Z,99894.15
2022-08-16T22:39:27.390Z,99895.52
2022-08-16T22:42:15.735Z,99893.39
2022-08-16T22:45:08.075Z,99882.04
2022-08-16T22:47:56.467Z,99880.22
2022-08-16T22:50:44.728Z,99890.77
2022-08-16T22:53:33.333Z,99879.73
2022-08-16T22:56:21.937Z,99876.78
2022-08-16T22:59:10.600Z,99870.05
2022-08-16T23:01:59.077Z,99880.37
2022-08-16T23:04:47.239Z,99874.70
2022-08-16T23:07:35.474Z,99881.52
2022-08-16T23:10:23.624Z,99875.06
2022-08-16T23:13:13.556Z,99870.23
2022-08-16T23:16:11.436Z,99876.22
2022-08-16T23:19:01.544Z,99875.70
2022-08-16T23:21:49.797Z,99875.45
2022-08-16T23:24:55.824Z,99876.84
2022-08-16T23:27:45.066Z,99883.40
2022-08-16T23:30:36.209Z,99874.52
2022-08-16T23:33:29.745Z,99871.06
2022-08-16T23:36:18.474Z,99877.84
2022-08-16T23:39:07.305Z,99871.39
2022-08-16T23:41:56.124Z,99875.75
2022-08-16T23:44:58.061Z,99864.71
2022-08-16T23:47:47.471Z,99870.69
2022-08-16T23:50:39.143Z,99875.84
2022-08-16T23:53:29.185Z,99875.89
2022-08-16T23:56:19.929Z,99874.55
2022-08-16T23:59:08.442Z,99867.27
